Time;durP1;ratioP1;P1;durP2;ratioP2;P2;SDS_P1;SDS_P2;PMS_P1;PMS_P2;Temp;Humidity;BMP_temperature;BMP_pressure;BME280_temperature;BME280_humidity;BME280_pressure;Samples;Min_cycle;Max_cycle;Signal;HPM_P1;HPM_P2
2023/08/09 00:00:49;;;;;;;;;;;13.80;99.90;;;;;;2066531;28;20618;-72
2023/08/09 00:01:49;;;;;;;;;;;13.80;99.90;;;;;;2066437;28;19913;-74
2023/08/09 00:02:50;;;;;;;;;;;13.80;99.90;;;;;;2065952;28;20435;-74
2023/08/09 00:03:50;;;;;;;;;;;13.70;99.90;;;;;;2069019;28;19983;-74
2023/08/09 00:04:50;;;;;;;;;;;13.70;99.90;;;;;;2067248;28;19920;-74
2023/08/09 00:05:51;;;;;;;;;;;13.80;99.90;;;;;;2066442;28;19960;-74
2023/08/09 00:06:51;;;;;;;;;;;13.70;99.90;;;;;;2066469;28;20323;-73
2023/08/09 00:07:52;;;;;;;;;;;13.70;99.90;;;;;;2067187;28;20733;-73
2023/08/09 00:08:52;;;;;;;;;;;13.70;99.90;;;;;;2069338;28;19924;-74
2023/08/09 00:09:53;;;;;;;;;;;13.80;99.90;;;;;;2066415;28;20142;-72
2023/08/09 00:10:53;;;;;;;;;;;13.70;99.90;;;;;;2066288;28;19917;-73
2023/08/09 00:11:54;;;;;;;;;;;13.70;99.90;;;;;;2067431;28;19948;-72
2023/08/09 00:12:54;;;;;;;;;;;13.70;99.90;;;;;;2063464;28;20401;-73
2023/08/09 00:13:55;;;;;;;;;;;13.70;99.90;;;;;;2064187;28;19924;-73
2023/08/09 00:14:55;;;;;;;;;;;13.70;99.90;;;;;;2066265;28;20392;-72
2023/08/09 00:15:56;;;;;;;;;;;13.70;99.90;;;;;;2066216;28;19917;-72
2023/08/09 00:16:56;;;;;;;;;;;13.70;99.90;;;;;;2056328;28;19914;-72
2023/08/09 00:17:57;;;;;;;;;;;13.80;99.90;;;;;;2066346;28;19996;-72
2023/08/09 00:18:57;;;;;;;;;;;13.80;99.90;;;;;;2066989;28;19917;-72
2023/08/09 00:19:58;;;;;;;;;;;13.80;99.90;;;;;;2058186;28;19918;-73
2023/08/09 00:20:59;;;;;;;;;;;13.80;99.90;;;;;;2060427;28;19917;-73
2023/08/09 00:21:59;;;;;;;;;;;13.90;99.90;;;;;;2062583;28;19957;-73
2023/08/09 00:23:00;;;;;;;;;;;13.90;99.90;;;;;;2058797;28;19985;-73
2023/08/09 00:24:01;;;;;;;;;;;14.00;99.90;;;;;;2067132;28;19913;-74
2023/08/09 00:25:01;;;;;;;;;;;14.00;99.90;;;;;;2066505;28;19917;-73
2023/08/09 00:26:02;;;;;;;;;;;14.00;99.90;;;;;;2063908;28;19913;-73
2023/08/09 00:27:03;;;;;;;;;;;14.00;99.90;;;;;;2066840;28;19979;-73
2023/08/09 00:28:04;;;;;;;;;;;14.00;99.90;;;;;;2065730;28;20028;-72
2023/08/09 00:29:04;;;;;;;;;;;14.00;99.90;;;;;;2064231;28;19917;-72
2023/08/09 00:30:14;;;;;;;;;;;14.00;99.90;;;;;;2070384;28;19926;-72
2023/08/09 00:31:14;;;;;;;;;;;14.10;99.90;;;;;;2066521;28;19980;-72
2023/08/09 00:32:15;;;;;;;;;;;14.10;99.90;;;;;;2059599;28;20393;-72
2023/08/09 00:33:16;;;;;;;;;;;14.10;99.90;;;;;;2059915;28;19918;-72
2023/08/09 00:34:16;;;;;;;;;;;14.10;99.90;;;;;;2068491;28;19913;-72
2023/08/09 00:35:16;;;;;;;;;;;14.10;99.90;;;;;;2067970;28;19914;-72
2023/08/09 00:36:17;;;;;;;;;;;14.10;99.90;;;;;;2059580;28;20016;-72
2023/08/09 00:37:18;;;;;;;;;;;14.10;99.90;;;;;;2069655;28;20546;-73
2023/08/09 00:38:19;;;;;;;;;;;14.10;99.90;;;;;;2063038;28;19918;-73
2023/08/09 00:39:19;;;;;;;;;;;14.10;99.90;;;;;;2063113;28;19926;-73
2023/08/09 00:40:20;;;;;;;;;;;14.10;99.90;;;;;;2065808;28;19981;-73
2023/08/09 00:41:21;;;;;;;;;;;14.00;99.90;;;;;;2069731;28;19922;-72
2023/08/09 00:42:22;;;;;;;;;;;14.10;99.90;;;;;;2067893;28;19960;-73
2023/08/09 00:43:23;;;;;;;;;;;14.00;99.90;;;;;;2067876;28;19922;-74
2023/08/09 00:44:23;;;;;;;;;;;14.00;99.90;;;;;;2067797;28;19924;-75
2023/08/09 00:45:24;;;;;;;;;;;14.00;99.90;;;;;;2068480;28;19953;-73
2023/08/09 00:46:25;;;;;;;;;;;14.00;99.90;;;;;;2069518;28;19996;-74
2023/08/09 00:47:26;;;;;;;;;;;14.00;99.90;;;;;;2067885;28;19929;-73
2023/08/09 00:48:26;;;;;;;;;;;14.00;99.90;;;;;;2059870;28;19921;-73
2023/08/09 00:49:27;;;;;;;;;;;14.00;99.90;;;;;;2058091;28;20366;-73
2023/08/09 00:50:28;;;;;;;;;;;14.00;99.90;;;;;;2053359;28;20377;-72
2023/08/09 00:51:28;;;;;;;;;;;14.00;99.90;;;;;;2059119;28;20431;-72
2023/08/09 00:52:29;;;;;;;;;;;13.90;99.90;;;;;;2067696;28;19917;-72
2023/08/09 00:53:31;;;;;;;;;;;13.90;99.90;;;;;;2067802;28;19944;-72
2023/08/09 00:54:32;;;;;;;;;;;13.90;99.90;;;;;;2068297;28;19971;-73
2023/08/09 00:55:33;;;;;;;;;;;13.90;99.90;;;;;;2063770;28;19921;-73
2023/08/09 00:56:34;;;;;;;;;;;13.90;99.90;;;;;;2070330;28;19917;-73
2023/08/09 00:57:34;;;;;;;;;;;13.90;99.90;;;;;;2068284;28;19913;-72
2023/08/09 00:58:35;;;;;;;;;;;14.00;99.90;;;;;;2067383;28;19917;-73
2023/08/09 00:59:35;;;;;;;;;;;14.00;99.90;;;;;;2068650;28;20397;-74
2023/08/09 01:00:37;;;;;;;;;;;13.90;99.90;;;;;;2069632;28;19917;-73
2023/08/09 01:01:38;;;;;;;;;;;13.90;99.90;;;;;;2055012;28;19985;-73
2023/08/09 01:02:38;;;;;;;;;;;13.90;99.90;;;;;;2056487;28;20032;-73
2023/08/09 01:03:39;;;;;;;;;;;13.90;99.90;;;;;;2061413;28;19941;-72
2023/08/09 01:04:40;;;;;;;;;;;13.90;99.90;;;;;;2067643;28;19953;-73
2023/08/09 01:06:03;;;;;;;;;;;13.90;99.90;;;;;;2059538;28;19980;-73
2023/08/09 01:07:17;;;;;;;;;;;13.90;99.90;;;;;;2040459;28;19915;-73
2023/08/09 01:08:23;;;;;;;;;;;13.90;99.90;;;;;;2069119;28;19998;-73
2023/08/09 01:09:37;;;;;;;;;;;13.90;99.90;;;;;;2072663;28;20574;-73
2023/08/09 01:10:46;;;;;;;;;;;14.00;99.90;;;;;;2060927;28;20373;-72
2023/08/09 01:11:46;;;;;;;;;;;13.90;99.90;;;;;;2067525;28;20047;-73
2023/08/09 01:12:49;;;;;;;;;;;14.00;99.90;;;;;;2067436;28;19913;-73
2023/08/09 01:13:51;;;;;;;;;;;14.00;99.90;;;;;;2056341;28;20021;-73
2023/08/09 01:14:53;;;;;;;;;;;14.00;99.90;;;;;;2053815;28;19945;-73
2023/08/09 01:15:55;;;;;;;;;;;14.00;99.90;;;;;;2054496;28;19961;-72
2023/08/09 01:16:56;;;;;;;;;;;14.00;99.90;;;;;;2062508;28;19914;-73
2023/08/09 01:17:58;;;;;;;;;;;14.00;99.90;;;;;;2057449;28;19920;-73
2023/08/09 01:18:58;;;;;;;;;;;14.10;99.90;;;;;;2065066;28;19985;-73
2023/08/09 01:19:59;;;;;;;;;;;14.10;99.90;;;;;;2051216;28;19918;-72
2023/08/09 01:21:02;;;;;;;;;;;14.10;99.90;;;;;;2059129;28;19926;-72
2023/08/09 01:22:13;;;;;;;;;;;14.10;99.90;;;;;;2061235;28;19972;-72
2023/08/09 01:23:20;;;;;;;;;;;14.10;99.90;;;;;;2061738;28;19925;-73
2023/08/09 01:24:22;;;;;;;;;;;14.10;99.90;;;;;;2062956;28;19918;-72
2023/08/09 01:25:22;;;;;;;;;;;14.20;99.90;;;;;;2067547;28;19924;-72
2023/08/09 01:26:23;;;;;;;;;;;14.20;99.90;;;;;;2057622;28;20769;-73
2023/08/09 01:27:24;;;;;;;;;;;14.20;99.90;;;;;;2062756;28;19925;-74
2023/08/09 01:28:24;;;;;;;;;;;14.20;99.90;;;;;;2067379;28;19917;-73
2023/08/09 01:29:26;;;;;;;;;;;14.20;99.90;;;;;;2061215;28;20391;-73
2023/08/09 01:30:26;;;;;;;;;;;14.20;99.90;;;;;;2063592;28;20016;-73
2023/08/09 01:31:27;;;;;;;;;;;14.20;99.90;;;;;;2056089;28;19925;-73
2023/08/09 01:32:29;;;;;;;;;;;14.30;99.90;;;;;;2048061;28;19914;-72
2023/08/09 01:33:30;;;;;;;;;;;14.30;99.90;;;;;;2065534;28;20523;-72
2023/08/09 01:34:31;;;;;;;;;;;14.30;99.90;;;;;;2058826;28;20039;-72
2023/08/09 01:35:34;;;;;;;;;;;14.30;99.90;;;;;;2046011;28;20329;-72
2023/08/09 01:36:37;;;;;;;;;;;14.30;99.90;;;;;;2059990;28;19925;-72
2023/08/09 01:37:48;;;;;;;;;;;14.30;99.90;;;;;;2067443;28;19980;-72
2023/08/09 01:38:52;;;;;;;;;;;14.30;99.90;;;;;;2067569;28;19914;-73
2023/08/09 01:39:56;;;;;;;;;;;14.30;99.90;;;;;;2060749;28;20020;-72
2023/08/09 01:40:56;;;;;;;;;;;14.30;99.90;;;;;;2053526;28;19914;-73
2023/08/09 01:41:57;;;;;;;;;;;14.30;99.90;;;;;;2061271;28;19932;-76
2023/08/09 01:42:58;;;;;;;;;;;14.30;99.90;;;;;;2056449;28;19918;-72
2023/08/09 01:43:59;;;;;;;;;;;14.30;99.90;;;;;;2066717;28;20102;-73
2023/08/09 01:45:02;;;;;;;;;;;14.30;99.90;;;;;;2067352;28;19913;-73
2023/08/09 01:46:03;;;;;;;;;;;14.30;99.90;;;;;;2072412;28;19990;-73
2023/08/09 01:47:04;;;;;;;;;;;14.30;99.90;;;;;;2053008;28;19965;-73
2023/08/09 01:48:05;;;;;;;;;;;14.30;99.90;;;;;;2051215;28;20456;-73
2023/08/09 01:49:17;;;;;;;;;;;14.30;99.90;;;;;;2058624;28;19921;-73
2023/08/09 01:50:19;;;;;;;;;;;14.30;99.90;;;;;;2065354;28;19924;-73
2023/08/09 01:51:20;;;;;;;;;;;14.40;99.90;;;;;;2066908;28;19917;-72
2023/08/09 01:52:20;;;;;;;;;;;14.30;99.90;;;;;;2065550;28;19914;-73
2023/08/09 01:53:21;;;;;;;;;;;14.40;99.90;;;;;;2067348;28;19914;-72
2023/08/09 01:54:21;;;;;;;;;;;14.40;99.90;;;;;;2058937;28;19924;-72
2023/08/09 01:55:24;;;;;;;;;;;14.40;99.90;;;;;;2054961;28;20807;-73
2023/08/09 01:56:24;;;;;;;;;;;14.40;99.90;;;;;;2059084;28;19921;-72
2023/08/09 01:57:26;;;;;;;;;;;14.40;99.90;;;;;;2059345;28;20344;-73
2023/08/09 01:58:26;;;;;;;;;;;14.40;99.90;;;;;;2052771;28;19922;-73
2023/08/09 01:59:27;;;;;;;;;;;14.40;99.90;;;;;;2041633;28;20733;-73
2023/08/09 02:00:27;;;;;;;;;;;14.40;99.90;;;;;;2050520;28;19918;-73
2023/08/09 02:01:28;;;;;;;;;;;14.40;99.90;;;;;;2059223;28;19960;-73
2023/08/09 02:02:28;;;;;;;;;;;14.40;99.90;;;;;;2062435;28;20412;-73
2023/08/09 02:03:29;;;;;;;;;;;14.40;99.90;;;;;;2068822;28;19960;-73
2023/08/09 02:04:30;;;;;;;;;;;14.40;99.90;;;;;;2061161;28;19957;-72
2023/08/09 02:05:31;;;;;;;;;;;14.50;99.90;;;;;;2067192;28;19917;-73
2023/08/09 02:06:32;;;;;;;;;;;14.50;99.90;;;;;;2059040;28;19961;-73
2023/08/09 02:07:32;;;;;;;;;;;14.50;99.90;;;;;;2064726;28;19941;-73
2023/08/09 02:08:33;;;;;;;;;;;14.50;99.90;;;;;;2053586;28;20481;-73
2023/08/09 02:09:34;;;;;;;;;;;14.50;99.90;;;;;;2062239;28;19918;-72
2023/08/09 02:10:34;;;;;;;;;;;14.50;99.90;;;;;;2059648;28;19920;-74
2023/08/09 02:11:35;;;;;;;;;;;14.50;99.90;;;;;;2060712;28;20028;-73
2023/08/09 02:12:36;;;;;;;;;;;14.50;99.90;;;;;;2066229;28;19921;-73
2023/08/09 02:13:39;;;;;;;;;;;14.50;99.90;;;;;;2067075;28;19913;-73
2023/08/09 02:14:40;;;;;;;;;;;14.50;99.90;;;;;;2067156;28;19924;-73
2023/08/09 02:15:41;;;;;;;;;;;14.50;99.90;;;;;;2063660;28;19921;-73
2023/08/09 02:16:48;;;;;;;;;;;14.50;99.90;;;;;;2064463;28;20012;-73
2023/08/09 02:17:49;;;;;;;;;;;14.50;99.90;;;;;;2050814;28;20413;-73
2023/08/09 02:18:49;;;;;;;;;;;14.50;99.90;;;;;;2057401;28;20393;-72
2023/08/09 02:19:50;;;;;;;;;;;14.50;99.90;;;;;;2067076;28;20020;-73
2023/08/09 02:20:52;;;;;;;;;;;14.60;99.90;;;;;;2068766;28;19917;-72
2023/08/09 02:21:52;;;;;;;;;;;14.60;99.90;;;;;;2064414;28;19920;-72
2023/08/09 02:22:53;;;;;;;;;;;14.60;99.90;;;;;;2054303;28;19918;-72
2023/08/09 02:23:54;;;;;;;;;;;14.60;99.90;;;;;;2058694;28;20349;-72
2023/08/09 02:24:54;;;;;;;;;;;14.60;99.90;;;;;;2055427;28;19957;-72
2023/08/09 02:25:55;;;;;;;;;;;14.60;99.90;;;;;;2046392;28;20390;-72
2023/08/09 02:26:56;;;;;;;;;;;14.60;99.90;;;;;;2055617;28;19921;-73
2023/08/09 02:27:57;;;;;;;;;;;14.60;99.90;;;;;;2064540;28;19917;-72
2023/08/09 02:28:57;;;;;;;;;;;14.60;99.90;;;;;;2054327;28;19918;-72
2023/08/09 02:29:58;;;;;;;;;;;14.60;99.90;;;;;;2045089;28;19929;-72
2023/08/09 02:30:59;;;;;;;;;;;14.60;99.90;;;;;;2060802;28;19914;-72
2023/08/09 02:32:00;;;;;;;;;;;14.60;99.90;;;;;;2068959;28;19956;-72
2023/08/09 02:33:00;;;;;;;;;;;14.60;99.90;;;;;;2061655;28;19921;-72
2023/08/09 02:34:02;;;;;;;;;;;14.60;99.90;;;;;;2058588;28;20005;-72
2023/08/09 02:35:03;;;;;;;;;;;14.60;99.90;;;;;;2062738;28;19914;-72
2023/08/09 02:36:04;;;;;;;;;;;14.60;99.90;;;;;;2066419;28;20052;-72
2023/08/09 02:37:04;;;;;;;;;;;14.60;99.90;;;;;;2060616;28;19980;-71
2023/08/09 02:38:05;;;;;;;;;;;14.60;99.90;;;;;;2051648;28;19928;-72
2023/08/09 02:39:05;;;;;;;;;;;14.60;99.90;;;;;;2061816;28;19987;-73
2023/08/09 02:40:06;;;;;;;;;;;14.60;99.90;;;;;;2061898;28;19944;-72
2023/08/09 02:41:07;;;;;;;;;;;14.50;99.90;;;;;;2053032;28;19918;-73
2023/08/09 02:42:08;;;;;;;;;;;14.50;99.90;;;;;;2062251;28;20016;-72
2023/08/09 02:43:08;;;;;;;;;;;14.50;99.90;;;;;;2065144;28;20579;-72
2023/08/09 02:44:10;;;;;;;;;;;14.50;99.90;;;;;;2064026;28;19937;-72
2023/08/09 02:45:12;;;;;;;;;;;14.50;99.90;;;;;;2072164;28;19917;-73
2023/08/09 02:46:13;;;;;;;;;;;14.50;99.90;;;;;;2070278;28;19964;-71
2023/08/09 02:47:13;;;;;;;;;;;14.50;99.90;;;;;;2057503;28;19930;-72
2023/08/09 02:48:14;;;;;;;;;;;14.50;99.90;;;;;;2053943;28;19918;-72
2023/08/09 02:49:14;;;;;;;;;;;14.50;99.90;;;;;;2052676;28;19918;-72
2023/08/09 02:50:15;;;;;;;;;;;14.50;99.90;;;;;;2053228;28;20311;-73
2023/08/09 02:51:15;;;;;;;;;;;14.50;99.90;;;;;;2066850;28;19924;-72
2023/08/09 02:52:16;;;;;;;;;;;14.50;99.90;;;;;;2061436;28;19973;-72
2023/08/09 02:53:17;;;;;;;;;;;14.40;99.90;;;;;;2057116;28;20309;-70
2023/08/09 02:54:17;;;;;;;;;;;14.40;99.90;;;;;;2063461;28;19913;-72
2023/08/09 02:55:18;;;;;;;;;;;14.40;99.90;;;;;;2066312;28;19952;-72
2023/08/09 02:56:18;;;;;;;;;;;14.40;99.90;;;;;;2067549;28;19914;-72
2023/08/09 02:57:19;;;;;;;;;;;14.40;99.90;;;;;;2068522;28;19988;-72
2023/08/09 02:58:19;;;;;;;;;;;14.40;99.90;;;;;;2066972;28;19917;-72
2023/08/09 02:59:20;;;;;;;;;;;14.40;99.90;;;;;;2062521;28;20024;-72
2023/08/09 03:00:20;;;;;;;;;;;14.40;99.90;;;;;;2057834;28;19918;-72
2023/08/09 03:01:22;;;;;;;;;;;14.40;99.90;;;;;;2058359;28;19924;-73
2023/08/09 03:02:23;;;;;;;;;;;14.40;99.90;;;;;;2049069;28;19968;-73
2023/08/09 03:03:25;;;;;;;;;;;14.40;99.90;;;;;;2062871;28;19932;-72
2023/08/09 03:04:25;;;;;;;;;;;14.40;99.90;;;;;;2058335;28;20519;-72
2023/08/09 03:05:27;;;;;;;;;;;14.40;99.90;;;;;;2060463;28;19968;-72
2023/08/09 03:06:28;;;;;;;;;;;14.40;99.90;;;;;;2064884;28;20476;-73
2023/08/09 03:07:28;;;;;;;;;;;14.40;99.90;;;;;;2067530;28;19913;-72
2023/08/09 03:08:29;;;;;;;;;;;14.40;99.90;;;;;;2068847;28;20645;-73
2023/08/09 03:09:29;;;;;;;;;;;14.40;99.90;;;;;;2062125;28;20402;-73
2023/08/09 03:10:30;;;;;;;;;;;14.40;99.90;;;;;;2066527;28;19925;-72
2023/08/09 03:11:31;;;;;;;;;;;14.40;99.90;;;;;;2058435;28;20432;-72
2023/08/09 03:12:31;;;;;;;;;;;14.40;99.90;;;;;;2056037;28;20008;-74
2023/08/09 03:13:32;;;;;;;;;;;14.40;99.90;;;;;;2058692;28;19914;-73
2023/08/09 03:14:33;;;;;;;;;;;14.40;99.90;;;;;;2056307;28;20120;-73
2023/08/09 03:15:34;;;;;;;;;;;14.40;99.90;;;;;;2056056;28;20503;-72
2023/08/09 03:16:35;;;;;;;;;;;14.40;99.90;;;;;;2059113;28;20040;-73
2023/08/09 03:17:36;;;;;;;;;;;14.40;99.90;;;;;;2064981;28;19914;-73
2023/08/09 03:18:36;;;;;;;;;;;14.40;99.90;;;;;;2063552;28;19914;-73
2023/08/09 03:19:37;;;;;;;;;;;14.40;99.90;;;;;;2064701;28;19929;-72
2023/08/09 03:20:37;;;;;;;;;;;14.40;99.90;;;;;;2056464;28;20153;-73
2023/08/09 03:21:38;;;;;;;;;;;14.40;99.90;;;;;;2065306;28;19944;-72
2023/08/09 03:22:39;;;;;;;;;;;14.40;99.90;;;;;;2057791;28;19921;-72
2023/08/09 03:23:40;;;;;;;;;;;14.40;99.90;;;;;;2050392;28;19933;-72
2023/08/09 03:24:41;;;;;;;;;;;14.40;99.90;;;;;;2050555;28;20524;-73
2023/08/09 03:25:42;;;;;;;;;;;14.40;99.90;;;;;;2045591;28;19970;-71
2023/08/09 03:26:45;;;;;;;;;;;14.40;99.90;;;;;;2058140;28;19918;-72
2023/08/09 03:27:48;;;;;;;;;;;14.30;99.90;;;;;;2056445;28;20380;-72
2023/08/09 03:28:52;;;;;;;;;;;14.40;99.90;;;;;;2058052;28;19917;-73
2023/08/09 03:29:53;;;;;;;;;;;14.40;99.90;;;;;;2057997;28;20017;-71
2023/08/09 03:30:55;;;;;;;;;;;14.40;99.90;;;;;;2062290;28;19921;-72
2023/08/09 03:31:56;;;;;;;;;;;14.40;99.90;;;;;;2062919;28;19996;-72
2023/08/09 03:32:57;;;;;;;;;;;14.30;99.90;;;;;;2051965;28;19941;-72
2023/08/09 03:34:00;;;;;;;;;;;14.30;99.90;;;;;;2063242;28;19961;-72
2023/08/09 03:35:01;;;;;;;;;;;14.30;99.90;;;;;;2060673;28;19913;-72
2023/08/09 03:36:03;;;;;;;;;;;14.30;99.90;;;;;;2053503;28;19925;-72
2023/08/09 03:37:04;;;;;;;;;;;14.30;99.90;;;;;;2063212;28;20000;-72
2023/08/09 03:38:05;;;;;;;;;;;14.30;99.90;;;;;;2068111;28;20530;-73
2023/08/09 03:39:06;;;;;;;;;;;14.20;99.90;;;;;;2062956;28;19954;-72
2023/08/09 03:40:12;;;;;;;;;;;14.20;99.90;;;;;;2058561;28;19929;-72
2023/08/09 03:41:12;;;;;;;;;;;14.20;99.90;;;;;;2057197;28;19925;-72
2023/08/09 03:42:13;;;;;;;;;;;14.20;99.90;;;;;;2054930;28;19914;-73
2023/08/09 03:43:13;;;;;;;;;;;14.10;99.90;;;;;;2052411;28;20534;-72
2023/08/09 03:44:14;;;;;;;;;;;14.10;99.90;;;;;;2055121;28;19926;-72
2023/08/09 03:45:14;;;;;;;;;;;14.10;99.90;;;;;;2056635;28;19914;-72
2023/08/09 03:46:15;;;;;;;;;;;14.10;99.90;;;;;;2050349;28;19949;-73
2023/08/09 03:47:15;;;;;;;;;;;14.10;99.90;;;;;;2055917;28;20306;-72
2023/08/09 03:48:16;;;;;;;;;;;14.10;99.90;;;;;;2065512;28;20708;-72
2023/08/09 03:49:16;;;;;;;;;;;14.10;99.90;;;;;;2059037;28;19918;-72
2023/08/09 03:50:17;;;;;;;;;;;14.00;99.90;;;;;;2053375;28;20375;-72
2023/08/09 03:51:18;;;;;;;;;;;14.00;99.90;;;;;;2066158;28;19917;-72
2023/08/09 03:52:18;;;;;;;;;;;14.00;99.90;;;;;;2056305;28;19985;-72
2023/08/09 03:53:19;;;;;;;;;;;14.00;99.90;;;;;;2065838;28;20087;-72
2023/08/09 03:54:20;;;;;;;;;;;14.00;99.90;;;;;;2066268;28;19917;-72
2023/08/09 03:55:21;;;;;;;;;;;14.00;99.90;;;;;;2059123;28;19938;-72
2023/08/09 03:56:21;;;;;;;;;;;14.00;99.90;;;;;;2047821;28;19929;-71
2023/08/09 03:57:22;;;;;;;;;;;14.00;99.90;;;;;;2058368;28;19918;-72
2023/08/09 03:58:22;;;;;;;;;;;14.00;99.90;;;;;;2058292;28;20377;-73
2023/08/09 03:59:23;;;;;;;;;;;14.00;99.90;;;;;;2050331;28;20371;-73
2023/08/09 04:00:26;;;;;;;;;;;14.00;99.90;;;;;;2057918;28;19948;-72
2023/08/09 04:01:26;;;;;;;;;;;14.00;99.90;;;;;;2048449;28;19914;-73
2023/08/09 04:02:29;;;;;;;;;;;14.00;99.90;;;;;;2045940;28;19922;-72
2023/08/09 04:03:29;;;;;;;;;;;14.00;99.90;;;;;;2069017;28;20555;-73
2023/08/09 04:04:30;;;;;;;;;;;14.10;99.90;;;;;;2059614;28;19976;-73
2023/08/09 04:05:31;;;;;;;;;;;14.10;99.90;;;;;;2061825;28;20393;-73
2023/08/09 04:06:31;;;;;;;;;;;14.00;99.90;;;;;;2067913;28;19917;-73
2023/08/09 04:07:32;;;;;;;;;;;14.00;99.90;;;;;;2057186;28;19930;-71
2023/08/09 04:08:34;;;;;;;;;;;14.00;99.90;;;;;;2060655;28;19917;-73
2023/08/09 04:09:35;;;;;;;;;;;14.10;99.90;;;;;;2055524;28;19946;-72
2023/08/09 04:10:36;;;;;;;;;;;14.10;99.90;;;;;;2065252;28;19921;-72
2023/08/09 04:11:36;;;;;;;;;;;14.10;99.90;;;;;;2061866;28;19921;-71
2023/08/09 04:12:38;;;;;;;;;;;14.10;99.90;;;;;;2056239;28;19968;-72
2023/08/09 04:13:38;;;;;;;;;;;14.10;99.90;;;;;;2052407;28;19964;-72
2023/08/09 04:14:39;;;;;;;;;;;14.10;99.90;;;;;;2051317;28;19918;-71
2023/08/09 04:15:39;;;;;;;;;;;14.10;99.90;;;;;;2061587;28;20436;-72
2023/08/09 04:16:40;;;;;;;;;;;14.10;99.90;;;;;;2062744;28;19929;-71
2023/08/09 04:17:40;;;;;;;;;;;14.10;99.90;;;;;;2063386;28;20516;-71
2023/08/09 04:18:41;;;;;;;;;;;14.10;99.90;;;;;;2065907;28;19933;-71
2023/08/09 04:19:42;;;;;;;;;;;14.10;99.90;;;;;;2058762;28;19918;-71
2023/08/09 04:20:45;;;;;;;;;;;14.10;99.90;;;;;;2047169;28;20037;-71
2023/08/09 04:21:45;;;;;;;;;;;14.10;99.90;;;;;;2059877;28;19922;-71
2023/08/09 04:22:46;;;;;;;;;;;14.10;99.90;;;;;;2066764;28;19913;-72
2023/08/09 04:23:47;;;;;;;;;;;14.10;99.90;;;;;;2046998;28;19927;-72
2023/08/09 04:24:47;;;;;;;;;;;14.10;99.90;;;;;;2066054;28;19969;-71
2023/08/09 04:25:48;;;;;;;;;;;14.10;99.90;;;;;;2068482;28;19921;-71
2023/08/09 04:26:48;;;;;;;;;;;14.10;99.90;;;;;;2068599;28;19913;-71
2023/08/09 04:27:49;;;;;;;;;;;14.10;99.90;;;;;;2068536;28;20389;-70
2023/08/09 04:28:49;;;;;;;;;;;14.10;99.90;;;;;;2068607;28;19918;-69
2023/08/09 04:29:50;;;;;;;;;;;14.10;99.90;;;;;;2069327;28;19955;-71
2023/08/09 04:30:51;;;;;;;;;;;14.10;99.90;;;;;;2067693;28;19922;-70
2023/08/09 04:31:52;;;;;;;;;;;14.10;99.90;;;;;;2068679;28;19924;-70
2023/08/09 04:32:52;;;;;;;;;;;14.10;99.90;;;;;;2067998;28;20012;-70
2023/08/09 04:33:53;;;;;;;;;;;14.10;99.90;;;;;;2069866;28;19967;-71
2023/08/09 04:34:54;;;;;;;;;;;14.10;99.90;;;;;;2068293;28;19913;-70
2023/08/09 04:35:54;;;;;;;;;;;14.10;99.90;;;;;;2067903;28;19923;-70
2023/08/09 04:36:55;;;;;;;;;;;14.00;99.90;;;;;;2067932;28;19917;-70
2023/08/09 04:37:55;;;;;;;;;;;14.00;99.90;;;;;;2068398;28;20016;-70
2023/08/09 04:38:56;;;;;;;;;;;14.00;99.90;;;;;;2065417;28;19941;-70
2023/08/09 04:39:56;;;;;;;;;;;14.00;99.90;;;;;;2059242;28;19976;-70
2023/08/09 04:40:57;;;;;;;;;;;14.00;99.90;;;;;;2067980;28;20527;-71
2023/08/09 04:41:57;;;;;;;;;;;14.00;99.90;;;;;;2068580;28;19918;-70
2023/08/09 04:42:58;;;;;;;;;;;14.00;99.90;;;;;;2070230;28;19935;-71
2023/08/09 04:43:59;;;;;;;;;;;14.00;99.90;;;;;;2068741;28;19914;-70
2023/08/09 04:45:00;;;;;;;;;;;14.00;99.90;;;;;;2067831;28;20739;-69
2023/08/09 04:46:00;;;;;;;;;;;14.00;99.90;;;;;;2063485;28;19918;-69
2023/08/09 04:47:01;;;;;;;;;;;14.00;99.90;;;;;;2064850;28;19953;-70
2023/08/09 04:48:03;;;;;;;;;;;13.90;99.90;;;;;;2070104;28;19913;-70
2023/08/09 04:49:03;;;;;;;;;;;13.90;99.90;;;;;;2066090;28;20020;-70
2023/08/09 04:50:04;;;;;;;;;;;13.90;99.90;;;;;;2068456;28;19983;-70
2023/08/09 04:51:05;;;;;;;;;;;13.90;99.90;;;;;;2068246;28;19921;-70
2023/08/09 04:52:06;;;;;;;;;;;13.90;99.90;;;;;;2069059;28;20008;-69
2023/08/09 04:53:06;;;;;;;;;;;13.90;99.90;;;;;;2069549;28;19914;-70
2023/08/09 04:54:07;;;;;;;;;;;13.90;99.90;;;;;;2067822;28;20995;-70
2023/08/09 04:55:07;;;;;;;;;;;13.90;99.90;;;;;;2067494;28;19924;-69
2023/08/09 04:56:08;;;;;;;;;;;13.80;99.90;;;;;;2067661;28;19995;-68
2023/08/09 04:57:08;;;;;;;;;;;13.80;99.90;;;;;;2070435;28;19921;-70
2023/08/09 04:58:09;;;;;;;;;;;13.80;99.90;;;;;;2068375;28;19913;-69
2023/08/09 04:59:09;;;;;;;;;;;13.80;99.90;;;;;;2068384;28;20004;-69
2023/08/09 05:00:10;;;;;;;;;;;13.80;99.90;;;;;;2068079;28;19924;-69
2023/08/09 05:01:11;;;;;;;;;;;13.70;99.90;;;;;;2068457;28;20008;-69
2023/08/09 05:02:11;;;;;;;;;;;13.70;99.90;;;;;;2069661;28;19925;-71
2023/08/09 05:03:12;;;;;;;;;;;13.70;99.90;;;;;;2067426;28;19929;-72
2023/08/09 05:04:12;;;;;;;;;;;13.70;99.90;;;;;;2068680;28;20027;-72
2023/08/09 05:05:13;;;;;;;;;;;13.60;99.90;;;;;;2068651;28;19918;-73
2023/08/09 05:06:13;;;;;;;;;;;13.60;99.90;;;;;;2069752;28;20303;-73
2023/08/09 05:07:14;;;;;;;;;;;13.50;99.90;;;;;;2056251;28;20373;-73
2023/08/09 05:08:14;;;;;;;;;;;13.50;99.90;;;;;;2060025;28;19972;-73
2023/08/09 05:09:15;;;;;;;;;;;13.40;99.90;;;;;;2067766;28;20410;-74
2023/08/09 05:10:15;;;;;;;;;;;13.30;99.90;;;;;;2070626;28;19953;-75
2023/08/09 05:11:16;;;;;;;;;;;13.30;99.90;;;;;;2068025;28;19936;-75
2023/08/09 05:12:16;;;;;;;;;;;13.30;99.90;;;;;;2066646;28;20055;-74
2023/08/09 05:13:17;;;;;;;;;;;13.20;99.90;;;;;;2064103;28;19984;-74
2023/08/09 05:14:18;;;;;;;;;;;13.20;99.90;;;;;;2065830;28;20616;-73
2023/08/09 05:15:18;;;;;;;;;;;13.20;99.90;;;;;;2066548;28;19948;-74
2023/08/09 05:16:24;;;;;;;;;;;13.10;99.90;;;;;;2053581;28;19918;-75
2023/08/09 05:17:24;;;;;;;;;;;13.10;99.90;;;;;;2062776;28;20419;-74
2023/08/09 05:18:25;;;;;;;;;;;13.10;99.90;;;;;;2066589;28;19909;-74
2023/08/09 05:19:25;;;;;;;;;;;13.10;99.90;;;;;;2068404;28;19913;-73
2023/08/09 05:20:26;;;;;;;;;;;13.10;99.90;;;;;;2067006;28;19944;-74
2023/08/09 05:21:26;;;;;;;;;;;13.10;99.90;;;;;;2069424;28;19924;-75
2023/08/09 05:22:27;;;;;;;;;;;13.10;99.90;;;;;;2063437;28;19967;-74
2023/08/09 05:23:27;;;;;;;;;;;13.10;99.90;;;;;;2067357;28;20655;-75
2023/08/09 05:24:28;;;;;;;;;;;13.10;99.90;;;;;;2059330;28;19964;-74
2023/08/09 05:25:29;;;;;;;;;;;13.10;99.90;;;;;;2064110;28;20364;-74
2023/08/09 05:26:29;;;;;;;;;;;13.00;99.90;;;;;;2065891;28;20153;-74
2023/08/09 05:27:30;;;;;;;;;;;13.00;99.90;;;;;;2066077;28;19928;-75
2023/08/09 05:28:30;;;;;;;;;;;13.00;99.90;;;;;;2065811;28;19956;-74
2023/08/09 05:29:31;;;;;;;;;;;13.00;99.90;;;;;;2068408;28;20012;-75
2023/08/09 05:30:31;;;;;;;;;;;13.00;99.90;;;;;;2067318;28;20388;-74
2023/08/09 05:31:32;;;;;;;;;;;13.00;99.90;;;;;;2063798;28;19917;-75
2023/08/09 05:32:32;;;;;;;;;;;13.00;99.90;;;;;;2064499;28;19926;-74
2023/08/09 05:33:33;;;;;;;;;;;13.00;99.90;;;;;;2066083;28;20561;-75
2023/08/09 05:34:33;;;;;;;;;;;13.00;99.90;;;;;;2047734;28;19922;-75
2023/08/09 05:35:34;;;;;;;;;;;13.00;99.90;;;;;;2046955;28;19914;-75
2023/08/09 05:36:34;;;;;;;;;;;13.00;99.90;;;;;;2057803;28;19953;-76
2023/08/09 05:37:35;;;;;;;;;;;12.90;99.90;;;;;;2066524;28;19917;-75
2023/08/09 05:38:35;;;;;;;;;;;13.00;99.90;;;;;;2064540;28;19956;-73
2023/08/09 05:39:36;;;;;;;;;;;13.00;99.90;;;;;;2058608;28;19949;-75
2023/08/09 05:40:37;;;;;;;;;;;13.00;99.90;;;;;;2065797;28;19914;-75
2023/08/09 05:41:37;;;;;;;;;;;13.00;99.90;;;;;;2069152;28;20040;-75
2023/08/09 05:42:38;;;;;;;;;;;13.00;99.90;;;;;;2071168;28;20392;-75
2023/08/09 05:43:38;;;;;;;;;;;13.10;99.90;;;;;;2064355;28;19921;-75
2023/08/09 05:44:39;;;;;;;;;;;13.10;99.90;;;;;;2064554;28;19917;-81
2023/08/09 05:45:41;;;;;;;;;;;13.00;99.90;;;;;;2065584;28;20420;-72
2023/08/09 05:46:42;;;;;;;;;;;13.00;99.90;;;;;;2064821;28;20725;-75
2023/08/09 05:47:42;;;;;;;;;;;13.10;99.90;;;;;;2067856;28;19964;-74
2023/08/09 05:48:43;;;;;;;;;;;13.10;99.90;;;;;;2065767;28;20401;-74
2023/08/09 05:49:44;;;;;;;;;;;13.10;99.90;;;;;;2066041;28;20412;-75
2023/08/09 05:50:44;;;;;;;;;;;13.10;99.90;;;;;;2064541;28;19945;-75
2023/08/09 05:51:45;;;;;;;;;;;13.10;99.90;;;;;;2053717;28;20493;-76
2023/08/09 05:52:45;;;;;;;;;;;13.10;99.90;;;;;;2058322;28;19921;-76
2023/08/09 05:53:46;;;;;;;;;;;13.00;99.90;;;;;;2064683;28;19924;-76
2023/08/09 05:54:46;;;;;;;;;;;13.00;99.90;;;;;;2062188;28;19937;-75
2023/08/09 05:55:47;;;;;;;;;;;13.00;99.90;;;;;;2066036;28;19914;-74